sensor_id;sensor_type;location;lat;lon;timestamp;P1;durP1;ratioP1;P2;durP2;ratioP2
67889;SDS011;54685;52.082;5.426;2023-04-30T00:02:13;12.35;;;8.57;;
67889;SDS011;54685;52.082;5.426;2023-04-30T00:04:40;11.45;;;8.45;;
67889;SDS011;54685;52.082;5.426;2023-04-30T00:07:07;12.30;;;9.60;;
67889;SDS011;54685;52.082;5.426;2023-04-30T00:09:34;13.32;;;9.27;;
67889;SDS011;54685;52.082;5.426;2023-04-30T00:12:00;14.35;;;8.90;;
67889;SDS011;54685;52.082;5.426;2023-04-30T00:14:27;13.02;;;9.55;;
67889;SDS011;54685;52.082;5.426;2023-04-30T00:16:54;16.60;;;9.32;;
67889;SDS011;54685;52.082;5.426;2023-04-30T00:19:21;14.68;;;8.63;;
67889;SDS011;54685;52.082;5.426;2023-04-30T00:21:50;11.85;;;8.05;;
67889;SDS011;54685;52.082;5.426;2023-04-30T00:24:17;13.05;;;9.15;;
67889;SDS011;54685;52.082;5.426;2023-04-30T00:26:43;13.45;;;8.82;;
67889;SDS011;54685;52.082;5.426;2023-04-30T00:29:10;11.13;;;7.68;;
67889;SDS011;54685;52.082;5.426;2023-04-30T00:31:37;12.73;;;7.93;;
67889;SDS011;54685;52.082;5.426;2023-04-30T00:34:04;15.30;;;9.40;;
67889;SDS011;54685;52.082;5.426;2023-04-30T00:36:31;16.73;;;9.90;;
67889;SDS011;54685;52.082;5.426;2023-04-30T00:38:58;12.18;;;9.07;;
67889;SDS011;54685;52.082;5.426;2023-04-30T00:41:25;15.80;;;9.02;;
67889;SDS011;54685;52.082;5.426;2023-04-30T00:43:53;15.77;;;9.48;;
67889;SDS011;54685;52.082;5.426;2023-04-30T00:46:20;15.32;;;9.30;;
67889;SDS011;54685;52.082;5.426;2023-04-30T00:48:49;13.77;;;9.25;;
67889;SDS011;54685;52.082;5.426;2023-04-30T00:51:15;12.13;;;7.63;;
67889;SDS011;54685;52.082;5.426;2023-04-30T00:53:42;12.85;;;9.38;;
67889;SDS011;54685;52.082;5.426;2023-04-30T00:56:09;13.32;;;8.38;;
67889;SDS011;54685;52.082;5.426;2023-04-30T00:58:38;12.43;;;8.88;;
67889;SDS011;54685;52.082;5.426;2023-04-30T01:01:05;15.75;;;9.15;;
67889;SDS011;54685;52.082;5.426;2023-04-30T01:03:32;11.40;;;8.55;;
67889;SDS011;54685;52.082;5.426;2023-04-30T01:06:02;10.93;;;8.13;;
67889;SDS011;54685;52.082;5.426;2023-04-30T01:08:29;15.07;;;9.43;;
67889;SDS011;54685;52.082;5.426;2023-04-30T01:13:52;14.70;;;9.23;;
67889;SDS011;54685;52.082;5.426;2023-04-30T01:16:29;13.50;;;9.23;;
67889;SDS011;54685;52.082;5.426;2023-04-30T01:19:04;15.73;;;9.63;;
67889;SDS011;54685;52.082;5.426;2023-04-30T01:21:37;15.88;;;9.07;;
67889;SDS011;54685;52.082;5.426;2023-04-30T01:24:14;14.02;;;8.73;;
67889;SDS011;54685;52.082;5.426;2023-04-30T01:29:56;13.48;;;9.30;;
67889;SDS011;54685;52.082;5.426;2023-04-30T01:32:24;14.57;;;8.90;;
67889;SDS011;54685;52.082;5.426;2023-04-30T01:34:54;14.20;;;8.30;;
67889;SDS011;54685;52.082;5.426;2023-04-30T01:37:37;11.23;;;8.25;;
67889;SDS011;54685;52.082;5.426;2023-04-30T01:48:27;10.95;;;7.15;;
67889;SDS011;54685;52.082;5.426;2023-04-30T01:51:10;9.30;;;7.35;;
67889;SDS011;54685;52.082;5.426;2023-04-30T01:53:40;10.45;;;7.20;;
67889;SDS011;54685;52.082;5.426;2023-04-30T01:56:10;8.90;;;6.88;;
67889;SDS011;54685;52.082;5.426;2023-04-30T01:58:44;15.05;;;7.97;;
67889;SDS011;54685;52.082;5.426;2023-04-30T02:01:29;13.13;;;7.93;;
67889;SDS011;54685;52.082;5.426;2023-04-30T02:03:57;11.27;;;7.82;;
67889;SDS011;54685;52.082;5.426;2023-04-30T02:06:25;14.27;;;8.38;;
67889;SDS011;54685;52.082;5.426;2023-04-30T02:08:54;12.10;;;7.18;;
67889;SDS011;54685;52.082;5.426;2023-04-30T02:11:24;10.10;;;7.95;;
67889;SDS011;54685;52.082;5.426;2023-04-30T02:13:51;11.68;;;7.80;;
67889;SDS011;54685;52.082;5.426;2023-04-30T02:16:18;12.13;;;8.13;;
67889;SDS011;54685;52.082;5.426;2023-04-30T02:18:49;15.20;;;7.63;;
67889;SDS011;54685;52.082;5.426;2023-04-30T02:21:16;12.07;;;7.95;;
67889;SDS011;54685;52.082;5.426;2023-04-30T02:23:43;13.82;;;7.88;;
67889;SDS011;54685;52.082;5.426;2023-04-30T02:26:10;11.20;;;7.32;;
67889;SDS011;54685;52.082;5.426;2023-04-30T02:28:37;11.20;;;7.60;;
67889;SDS011;54685;52.082;5.426;2023-04-30T02:31:03;15.20;;;8.05;;
67889;SDS011;54685;52.082;5.426;2023-04-30T02:33:31;13.07;;;8.55;;
67889;SDS011;54685;52.082;5.426;2023-04-30T02:36:01;12.30;;;7.90;;
67889;SDS011;54685;52.082;5.426;2023-04-30T02:38:27;15.25;;;8.52;;
67889;SDS011;54685;52.082;5.426;2023-04-30T02:40:54;14.55;;;8.35;;
67889;SDS011;54685;52.082;5.426;2023-04-30T02:43:24;8.95;;;7.80;;
67889;SDS011;54685;52.082;5.426;2023-04-30T02:45:50;11.18;;;8.27;;
67889;SDS011;54685;52.082;5.426;2023-04-30T02:48:17;11.10;;;7.35;;
67889;SDS011;54685;52.082;5.426;2023-04-30T02:50:44;10.60;;;7.72;;
67889;SDS011;54685;52.082;5.426;2023-04-30T02:53:11;9.45;;;7.10;;
67889;SDS011;54685;52.082;5.426;2023-04-30T02:55:37;10.18;;;7.70;;
67889;SDS011;54685;52.082;5.426;2023-04-30T02:58:04;11.48;;;8.63;;
67889;SDS011;54685;52.082;5.426;2023-04-30T03:00:31;10.93;;;8.02;;
67889;SDS011;54685;52.082;5.426;2023-04-30T03:02:57;11.45;;;7.40;;
67889;SDS011;54685;52.082;5.426;2023-04-30T03:05:26;10.10;;;7.68;;
67889;SDS011;54685;52.082;5.426;2023-04-30T03:07:53;10.93;;;7.35;;
67889;SDS011;54685;52.082;5.426;2023-04-30T03:10:20;10.40;;;6.72;;
67889;SDS011;54685;52.082;5.426;2023-04-30T03:12:47;13.25;;;7.90;;
67889;SDS011;54685;52.082;5.426;2023-04-30T03:15:16;10.60;;;7.63;;
67889;SDS011;54685;52.082;5.426;2023-04-30T03:17:43;12.52;;;7.20;;
67889;SDS011;54685;52.082;5.426;2023-04-30T03:20:11;10.90;;;7.20;;
67889;SDS011;54685;52.082;5.426;2023-04-30T03:22:39;10.88;;;7.68;;
67889;SDS011;54685;52.082;5.426;2023-04-30T03:25:08;10.35;;;7.57;;
67889;SDS011;54685;52.082;5.426;2023-04-30T03:27:35;11.77;;;8.25;;
67889;SDS011;54685;52.082;5.426;2023-04-30T03:30:02;12.07;;;7.38;;
67889;SDS011;54685;52.082;5.426;2023-04-30T03:32:30;11.13;;;6.78;;
67889;SDS011;54685;52.082;5.426;2023-04-30T03:34:57;11.35;;;7.93;;
67889;SDS011;54685;52.082;5.426;2023-04-30T03:37:25;13.00;;;7.63;;
67889;SDS011;54685;52.082;5.426;2023-04-30T03:39:51;11.35;;;7.43;;
67889;SDS011;54685;52.082;5.426;2023-04-30T03:42:18;10.73;;;7.03;;
67889;SDS011;54685;52.082;5.426;2023-04-30T03:44:46;11.10;;;7.53;;
67889;SDS011;54685;52.082;5.426;2023-04-30T03:47:13;8.80;;;6.80;;
67889;SDS011;54685;52.082;5.426;2023-04-30T03:49:40;11.75;;;7.40;;
67889;SDS011;54685;52.082;5.426;2023-04-30T03:52:07;9.65;;;6.78;;
67889;SDS011;54685;52.082;5.426;2023-04-30T03:54:33;9.98;;;6.60;;
67889;SDS011;54685;52.082;5.426;2023-04-30T03:57:00;8.38;;;6.22;;
67889;SDS011;54685;52.082;5.426;2023-04-30T03:59:30;14.00;;;7.47;;
67889;SDS011;54685;52.082;5.426;2023-04-30T04:01:58;11.05;;;6.45;;
67889;SDS011;54685;52.082;5.426;2023-04-30T04:04:26;11.77;;;7.50;;
67889;SDS011;54685;52.082;5.426;2023-04-30T04:06:53;10.23;;;7.28;;
67889;SDS011;54685;52.082;5.426;2023-04-30T04:09:20;9.23;;;7.03;;
67889;SDS011;54685;52.082;5.426;2023-04-30T04:11:47;10.50;;;6.70;;
67889;SDS011;54685;52.082;5.426;2023-04-30T04:14:14;13.80;;;7.25;;
67889;SDS011;54685;52.082;5.426;2023-04-30T04:16:42;8.80;;;6.70;;
67889;SDS011;54685;52.082;5.426;2023-04-30T04:19:12;7.90;;;6.45;;
67889;SDS011;54685;52.082;5.426;2023-04-30T04:21:39;8.48;;;6.70;;
67889;SDS011;54685;52.082;5.426;2023-04-30T04:24:12;8.02;;;6.60;;
67889;SDS011;54685;52.082;5.426;2023-04-30T04:26:39;7.47;;;5.80;;
67889;SDS011;54685;52.082;5.426;2023-04-30T04:29:07;8.60;;;6.43;;
67889;SDS011;54685;52.082;5.426;2023-04-30T04:31:35;9.60;;;6.78;;
67889;SDS011;54685;52.082;5.426;2023-04-30T04:34:03;9.95;;;6.65;;
67889;SDS011;54685;52.082;5.426;2023-04-30T04:36:30;9.27;;;6.50;;
67889;SDS011;54685;52.082;5.426;2023-04-30T04:38:59;10.75;;;6.45;;
67889;SDS011;54685;52.082;5.426;2023-04-30T04:41:30;9.00;;;6.07;;
67889;SDS011;54685;52.082;5.426;2023-04-30T04:43:58;11.38;;;5.78;;
67889;SDS011;54685;52.082;5.426;2023-04-30T04:46:27;8.57;;;6.03;;
67889;SDS011;54685;52.082;5.426;2023-04-30T04:48:54;6.32;;;5.28;;
67889;SDS011;54685;52.082;5.426;2023-04-30T04:51:21;10.80;;;6.57;;
67889;SDS011;54685;52.082;5.426;2023-04-30T04:53:48;8.25;;;6.70;;
67889;SDS011;54685;52.082;5.426;2023-04-30T04:56:15;10.68;;;6.95;;
67889;SDS011;54685;52.082;5.426;2023-04-30T04:58:45;11.90;;;7.20;;
67889;SDS011;54685;52.082;5.426;2023-04-30T05:01:12;17.30;;;7.40;;
67889;SDS011;54685;52.082;5.426;2023-04-30T05:03:39;11.48;;;7.35;;
67889;SDS011;54685;52.082;5.426;2023-04-30T05:06:06;16.50;;;7.93;;
67889;SDS011;54685;52.082;5.426;2023-04-30T05:08:33;12.95;;;8.20;;
67889;SDS011;54685;52.082;5.426;2023-04-30T05:11:00;12.45;;;8.35;;
67889;SDS011;54685;52.082;5.426;2023-04-30T05:13:27;12.60;;;7.88;;
67889;SDS011;54685;52.082;5.426;2023-04-30T05:15:53;11.38;;;7.68;;
67889;SDS011;54685;52.082;5.426;2023-04-30T05:18:20;10.68;;;7.32;;
67889;SDS011;54685;52.082;5.426;2023-04-30T05:20:47;10.50;;;6.93;;
67889;SDS011;54685;52.082;5.426;2023-04-30T05:23:14;9.75;;;7.35;;
67889;SDS011;54685;52.082;5.426;2023-04-30T05:25:41;7.55;;;6.53;;
67889;SDS011;54685;52.082;5.426;2023-04-30T05:28:07;10.13;;;7.40;;
67889;SDS011;54685;52.082;5.426;2023-04-30T05:30:34;12.43;;;7.72;;
67889;SDS011;54685;52.082;5.426;2023-04-30T05:33:01;11.93;;;7.68;;
67889;SDS011;54685;52.082;5.426;2023-04-30T05:35:28;11.15;;;8.15;;
67889;SDS011;54685;52.082;5.426;2023-04-30T05:37:55;9.57;;;8.02;;
67889;SDS011;54685;52.082;5.426;2023-04-30T05:40:22;14.07;;;7.90;;
67889;SDS011;54685;52.082;5.426;2023-04-30T05:42:49;10.85;;;8.38;;
67889;SDS011;54685;52.082;5.426;2023-04-30T05:45:15;12.82;;;8.45;;
67889;SDS011;54685;52.082;5.426;2023-04-30T05:47:42;19.52;;;9.63;;
67889;SDS011;54685;52.082;5.426;2023-04-30T05:50:09;13.20;;;9.23;;
67889;SDS011;54685;52.082;5.426;2023-04-30T05:52:36;16.85;;;8.93;;
67889;SDS011;54685;52.082;5.426;2023-04-30T05:55:03;18.65;;;9.30;;
67889;SDS011;54685;52.082;5.426;2023-04-30T05:57:31;13.40;;;8.68;;
67889;SDS011;54685;52.082;5.426;2023-04-30T05:59:57;10.70;;;8.02;;
67889;SDS011;54685;52.082;5.426;2023-04-30T06:02:24;15.82;;;8.23;;
67889;SDS011;54685;52.082;5.426;2023-04-30T06:04:51;10.27;;;7.60;;
67889;SDS011;54685;52.082;5.426;2023-04-30T06:07:19;13.00;;;8.50;;
67889;SDS011;54685;52.082;5.426;2023-04-30T06:09:46;12.88;;;8.50;;
67889;SDS011;54685;52.082;5.426;2023-04-30T06:12:12;17.83;;;8.70;;
67889;SDS011;54685;52.082;5.426;2023-04-30T06:14:39;9.63;;;7.60;;
67889;SDS011;54685;52.082;5.426;2023-04-30T06:17:11;12.93;;;7.90;;
67889;SDS011;54685;52.082;5.426;2023-04-30T06:19:38;19.63;;;8.63;;
67889;SDS011;54685;52.082;5.426;2023-04-30T06:22:05;14.10;;;8.70;;
67889;SDS011;54685;52.082;5.426;2023-04-30T06:24:31;11.75;;;7.97;;
67889;SDS011;54685;52.082;5.426;2023-04-30T06:26:58;11.90;;;7.38;;
67889;SDS011;54685;52.082;5.426;2023-04-30T06:29:26;10.90;;;7.88;;
67889;SDS011;54685;52.082;5.426;2023-04-30T06:31:53;13.15;;;7.35;;
67889;SDS011;54685;52.082;5.426;2023-04-30T06:34:21;11.65;;;7.78;;
67889;SDS011;54685;52.082;5.426;2023-04-30T06:36:47;16.00;;;9.15;;
67889;SDS011;54685;52.082;5.426;2023-04-30T06:39:14;16.25;;;9.02;;
67889;SDS011;54685;52.082;5.426;2023-04-30T06:41:42;13.80;;;8.57;;
67889;SDS011;54685;52.082;5.426;2023-04-30T06:44:09;11.13;;;8.63;;
67889;SDS011;54685;52.082;5.426;2023-04-30T06:46:36;12.57;;;8.77;;
67889;SDS011;54685;52.082;5.426;2023-04-30T06:49:03;13.20;;;7.75;;
67889;SDS011;54685;52.082;5.426;2023-04-30T06:51:29;14.45;;;7.93;;
67889;SDS011;54685;52.082;5.426;2023-04-30T06:53:56;18.15;;;9.20;;
67889;SDS011;54685;52.082;5.426;2023-04-30T06:56:23;15.25;;;8.23;;
67889;SDS011;54685;52.082;5.426;2023-04-30T06:58:50;12.50;;;7.80;;
67889;SDS011;54685;52.082;5.426;2023-04-30T07:01:16;16.80;;;8.70;;
67889;SDS011;54685;52.082;5.426;2023-04-30T07:03:43;12.52;;;8.18;;
67889;SDS011;54685;52.082;5.426;2023-04-30T07:06:11;10.77;;;7.53;;
67889;SDS011;54685;52.082;5.426;2023-04-30T07:08:37;12.68;;;8.10;;
67889;SDS011;54685;52.082;5.426;2023-04-30T07:11:06;13.25;;;8.43;;
67889;SDS011;54685;52.082;5.426;2023-04-30T07:13:33;11.20;;;7.63;;
67889;SDS011;54685;52.082;5.426;2023-04-30T07:16:06;13.70;;;7.50;;
67889;SDS011;54685;52.082;5.426;2023-04-30T07:18:35;11.27;;;6.85;;
67889;SDS011;54685;52.082;5.426;2023-04-30T07:21:03;12.10;;;7.38;;
67889;SDS011;54685;52.082;5.426;2023-04-30T07:23:29;10.32;;;6.95;;
67889;SDS011;54685;52.082;5.426;2023-04-30T07:25:56;10.85;;;7.97;;
67889;SDS011;54685;52.082;5.426;2023-04-30T07:28:23;9.57;;;7.40;;
67889;SDS011;54685;52.082;5.426;2023-04-30T07:30:50;14.75;;;7.60;;
67889;SDS011;54685;52.082;5.426;2023-04-30T07:33:19;10.45;;;6.97;;
67889;SDS011;54685;52.082;5.426;2023-04-30T07:35:47;12.25;;;7.35;;
67889;SDS011;54685;52.082;5.426;2023-04-30T07:38:14;11.13;;;6.97;;
67889;SDS011;54685;52.082;5.426;2023-04-30T07:40:42;9.00;;;7.32;;
67889;SDS011;54685;52.082;5.426;2023-04-30T07:43:09;10.32;;;7.40;;
67889;SDS011;54685;52.082;5.426;2023-04-30T07:45:37;9.80;;;7.00;;
67889;SDS011;54685;52.082;5.426;2023-04-30T07:48:03;13.40;;;7.22;;
67889;SDS011;54685;52.082;5.426;2023-04-30T07:50:30;9.20;;;6.45;;
67889;SDS011;54685;52.082;5.426;2023-04-30T07:53:00;13.20;;;6.63;;
67889;SDS011;54685;52.082;5.426;2023-04-30T07:55:27;10.30;;;6.85;;
67889;SDS011;54685;52.082;5.426;2023-04-30T07:57:54;14.52;;;7.28;;
67889;SDS011;54685;52.082;5.426;2023-04-30T08:00:21;9.63;;;6.88;;
67889;SDS011;54685;52.082;5.426;2023-04-30T08:02:48;10.50;;;6.65;;
67889;SDS011;54685;52.082;5.426;2023-04-30T08:05:16;10.75;;;7.10;;
67889;SDS011;54685;52.082;5.426;2023-04-30T08:07:42;7.97;;;6.03;;
67889;SDS011;54685;52.082;5.426;2023-04-30T08:10:12;11.75;;;6.80;;
67889;SDS011;54685;52.082;5.426;2023-04-30T08:12:39;11.80;;;6.80;;
67889;SDS011;54685;52.082;5.426;2023-04-30T08:15:07;8.15;;;5.50;;
67889;SDS011;54685;52.082;5.426;2023-04-30T08:17:34;11.52;;;6.82;;
67889;SDS011;54685;52.082;5.426;2023-04-30T08:20:04;8.07;;;5.63;;
67889;SDS011;54685;52.082;5.426;2023-04-30T08:22:32;8.20;;;5.28;;
67889;SDS011;54685;52.082;5.426;2023-04-30T08:24:59;9.52;;;5.72;;
67889;SDS011;54685;52.082;5.426;2023-04-30T08:27:27;11.60;;;5.93;;
67889;SDS011;54685;52.082;5.426;2023-04-30T08:29:55;7.78;;;5.20;;
67889;SDS011;54685;52.082;5.426;2023-04-30T08:32:22;10.38;;;5.55;;
67889;SDS011;54685;52.082;5.426;2023-04-30T08:34:49;7.05;;;5.30;;
67889;SDS011;54685;52.082;5.426;2023-04-30T08:37:16;7.53;;;5.28;;
67889;SDS011;54685;52.082;5.426;2023-04-30T08:39:43;6.38;;;4.85;;
67889;SDS011;54685;52.082;5.426;2023-04-30T08:42:11;7.00;;;5.10;;
67889;SDS011;54685;52.082;5.426;2023-04-30T08:44:39;6.28;;;4.70;;
67889;SDS011;54685;52.082;5.426;2023-04-30T08:47:09;6.28;;;4.70;;
67889;SDS011;54685;52.082;5.426;2023-04-30T08:49:40;8.63;;;4.82;;
67889;SDS011;54685;52.082;5.426;2023-04-30T08:52:07;6.50;;;4.63;;
67889;SDS011;54685;52.082;5.426;2023-04-30T08:54:37;7.28;;;5.03;;
67889;SDS011;54685;52.082;5.426;2023-04-30T08:57:06;8.77;;;4.97;;
67889;SDS011;54685;52.082;5.426;2023-04-30T08:59:33;6.00;;;3.80;;
67889;SDS011;54685;52.082;5.426;2023-04-30T09:02:00;6.95;;;4.22;;
67889;SDS011;54685;52.082;5.426;2023-04-30T09:04:30;7.28;;;3.97;;
67889;SDS011;54685;52.082;5.426;2023-04-30T09:06:57;6.47;;;3.65;;
67889;SDS011;54685;52.082;5.426;2023-04-30T09:09:38;8.07;;;4.40;;
67889;SDS011;54685;52.082;5.426;2023-04-30T09:12:15;4.97;;;3.80;;
67889;SDS011;54685;52.082;5.426;2023-04-30T09:17:26;8.35;;;3.72;;
67889;SDS011;54685;52.082;5.426;2023-04-30T09:19:53;6.20;;;3.67;;
67889;SDS011;54685;52.082;5.426;2023-04-30T09:22:30;3.92;;;2.67;;
67889;SDS011;54685;52.082;5.426;2023-04-30T09:24:57;3.97;;;2.60;;
67889;SDS011;54685;52.082;5.426;2023-04-30T09:27:24;6.28;;;2.72;;
67889;SDS011;54685;52.082;5.426;2023-04-30T09:29:51;4.28;;;2.25;;
67889;SDS011;54685;52.082;5.426;2023-04-30T09:32:18;6.90;;;2.95;;
67889;SDS011;54685;52.082;5.426;2023-04-30T09:34:45;4.75;;;3.25;;
67889;SDS011;54685;52.082;5.426;2023-04-30T09:37:11;4.30;;;2.88;;
67889;SDS011;54685;52.082;5.426;2023-04-30T09:39:48;5.18;;;2.80;;
67889;SDS011;54685;52.082;5.426;2023-04-30T09:42:18;3.95;;;2.70;;
67889;SDS011;54685;52.082;5.426;2023-04-30T09:44:45;4.63;;;2.70;;
67889;SDS011;54685;52.082;5.426;2023-04-30T09:47:16;4.53;;;2.83;;
67889;SDS011;54685;52.082;5.426;2023-04-30T09:49:47;4.13;;;2.47;;
67889;SDS011;54685;52.082;5.426;2023-04-30T09:52:19;5.55;;;2.67;;
67889;SDS011;54685;52.082;5.426;2023-04-30T09:54:46;4.43;;;2.63;;
67889;SDS011;54685;52.082;5.426;2023-04-30T09:57:15;5.18;;;2.40;;
67889;SDS011;54685;52.082;5.426;2023-04-30T09:59:43;3.67;;;2.45;;
67889;SDS011;54685;52.082;5.426;2023-04-30T10:02:12;3.33;;;2.15;;
67889;SDS011;54685;52.082;5.426;2023-04-30T10:04:46;5.35;;;2.33;;
67889;SDS011;54685;52.082;5.426;2023-04-30T10:07:19;4.63;;;2.47;;
67889;SDS011;54685;52.082;5.426;2023-04-30T10:09:49;4.32;;;2.88;;
67889;SDS011;54685;52.082;5.426;2023-04-30T10:12:20;4.50;;;2.67;;
67889;SDS011;54685;52.082;5.426;2023-04-30T10:14:51;6.38;;;3.20;;
67889;SDS011;54685;52.082;5.426;2023-04-30T10:17:25;5.20;;;2.40;;
67889;SDS011;54685;52.082;5.426;2023-04-30T10:19:54;5.30;;;2.50;;
67889;SDS011;54685;52.082;5.426;2023-04-30T10:22:24;4.57;;;2.00;;
67889;SDS011;54685;52.082;5.426;2023-04-30T10:24:51;4.63;;;2.67;;
67889;SDS011;54685;52.082;5.426;2023-04-30T10:27:18;4.00;;;2.45;;
67889;SDS011;54685;52.082;5.426;2023-04-30T10:29:46;4.15;;;2.30;;
67889;SDS011;54685;52.082;5.426;2023-04-30T10:32:14;3.47;;;2.60;;
67889;SDS011;54685;52.082;5.426;2023-04-30T10:34:54;5.45;;;2.42;;
67889;SDS011;54685;52.082;5.426;2023-04-30T10:40:18;6.03;;;2.35;;
67889;SDS011;54685;52.082;5.426;2023-04-30T10:42:46;6.43;;;2.47;;
67889;SDS011;54685;52.082;5.426;2023-04-30T10:45:14;4.22;;;2.53;;
67889;SDS011;54685;52.082;5.426;2023-04-30T10:48:17;5.50;;;2.65;;
67889;SDS011;54685;52.082;5.426;2023-04-30T10:50:54;3.97;;;2.50;;
67889;SDS011;54685;52.082;5.426;2023-04-30T10:53:22;6.82;;;3.00;;
67889;SDS011;54685;52.082;5.426;2023-04-30T10:58:37;3.33;;;2.30;;
67889;SDS011;54685;52.082;5.426;2023-04-30T11:01:07;4.25;;;2.75;;
67889;SDS011;54685;52.082;5.426;2023-04-30T11:03:37;4.35;;;2.40;;
67889;SDS011;54685;52.082;5.426;2023-04-30T11:06:11;3.78;;;2.22;;
67889;SDS011;54685;52.082;5.426;2023-04-30T11:08:44;8.07;;;2.45;;
67889;SDS011;54685;52.082;5.426;2023-04-30T11:11:12;3.65;;;2.53;;
67889;SDS011;54685;52.082;5.426;2023-04-30T11:13:51;3.45;;;2.20;;
67889;SDS011;54685;52.082;5.426;2023-04-30T11:16:28;4.03;;;2.55;;
67889;SDS011;54685;52.082;5.426;2023-04-30T11:19:04;4.45;;;2.55;;
67889;SDS011;54685;52.082;5.426;2023-04-30T11:21:41;5.10;;;2.20;;
67889;SDS011;54685;52.082;5.426;2023-04-30T11:27:27;5.72;;;2.53;;
67889;SDS011;54685;52.082;5.426;2023-04-30T11:29:55;4.65;;;2.45;;
67889;SDS011;54685;52.082;5.426;2023-04-30T11:32:24;3.65;;;2.60;;
67889;SDS011;54685;52.082;5.426;2023-04-30T11:34:53;8.27;;;2.47;;
67889;SDS011;54685;52.082;5.426;2023-04-30T11:37:23;3.45;;;2.20;;
67889;SDS011;54685;52.082;5.426;2023-04-30T11:39:59;2.95;;;2.20;;
67889;SDS011;54685;52.082;5.426;2023-04-30T11:42:29;2.72;;;2.28;;
67889;SDS011;54685;52.082;5.426;2023-04-30T11:45:06;2.75;;;2.25;;
67889;SDS011;54685;52.082;5.426;2023-04-30T11:47:41;3.20;;;2.08;;
67889;SDS011;54685;52.082;5.426;2023-04-30T11:50:16;2.75;;;2.33;;
67889;SDS011;54685;52.082;5.426;2023-04-30T11:52:52;4.80;;;2.40;;
67889;SDS011;54685;52.082;5.426;2023-04-30T11:55:21;3.00;;;2.03;;
67889;SDS011;54685;52.082;5.426;2023-04-30T12:00:24;5.28;;;2.30;;
67889;SDS011;54685;52.082;5.426;2023-04-30T12:02:53;4.10;;;2.22;;
67889;SDS011;54685;52.082;5.426;2023-04-30T12:05:21;3.80;;;2.17;;
67889;SDS011;54685;52.082;5.426;2023-04-30T12:07:50;4.03;;;2.10;;
67889;SDS011;54685;52.082;5.426;2023-04-30T12:10:21;3.90;;;2.22;;
67889;SDS011;54685;52.082;5.426;2023-04-30T12:12:49;3.40;;;2.25;;
67889;SDS011;54685;52.082;5.426;2023-04-30T12:15:19;3.53;;;1.90;;
67889;SDS011;54685;52.082;5.426;2023-04-30T12:17:59;4.72;;;2.10;;
67889;SDS011;54685;52.082;5.426;2023-04-30T12:20:40;6.47;;;2.22;;
67889;SDS011;54685;52.082;5.426;2023-04-30T12:23:07;5.63;;;1.98;;
67889;SDS011;54685;52.082;5.426;2023-04-30T12:25:41;2.67;;;1.98;;
67889;SDS011;54685;52.082;5.426;2023-04-30T12:28:10;3.97;;;2.03;;
67889;SDS011;54685;52.082;5.426;2023-04-30T12:30:37;6.00;;;1.90;;
67889;SDS011;54685;52.082;5.426;2023-04-30T12:33:04;3.78;;;2.20;;
67889;SDS011;54685;52.082;5.426;2023-04-30T12:35:31;5.50;;;2.00;;
67889;SDS011;54685;52.082;5.426;2023-04-30T12:38:01;2.47;;;1.80;;
67889;SDS011;54685;52.082;5.426;2023-04-30T12:40:30;2.90;;;1.73;;
67889;SDS011;54685;52.082;5.426;2023-04-30T12:45:44;4.40;;;2.03;;
67889;SDS011;54685;52.082;5.426;2023-04-30T12:48:22;2.55;;;2.03;;
67889;SDS011;54685;52.082;5.426;2023-04-30T12:51:00;4.72;;;2.20;;
67889;SDS011;54685;52.082;5.426;2023-04-30T12:53:28;2.75;;;1.60;;
67889;SDS011;54685;52.082;5.426;2023-04-30T12:56:07;4.88;;;2.42;;
67889;SDS011;54685;52.082;5.426;2023-04-30T12:58:41;2.55;;;2.00;;
67889;SDS011;54685;52.082;5.426;2023-04-30T13:01:11;4.30;;;2.05;;
67889;SDS011;54685;52.082;5.426;2023-04-30T13:03:38;2.42;;;1.70;;
67889;SDS011;54685;52.082;5.426;2023-04-30T13:06:05;10.68;;;2.60;;
67889;SDS011;54685;52.082;5.426;2023-04-30T13:08:32;3.13;;;1.73;;
67889;SDS011;54685;52.082;5.426;2023-04-30T13:11:15;2.83;;;1.80;;
67889;SDS011;54685;52.082;5.426;2023-04-30T13:13:42;3.22;;;1.73;;
67889;SDS011;54685;52.082;5.426;2023-04-30T13:16:08;3.25;;;1.80;;
67889;SDS011;54685;52.082;5.426;2023-04-30T13:18:35;3.70;;;1.88;;
67889;SDS011;54685;52.082;5.426;2023-04-30T13:21:02;3.67;;;1.77;;
67889;SDS011;54685;52.082;5.426;2023-04-30T13:23:29;2.17;;;1.50;;
67889;SDS011;54685;52.082;5.426;2023-04-30T13:26:07;6.32;;;1.80;;
67889;SDS011;54685;52.082;5.426;2023-04-30T13:28:34;2.63;;;1.23;;
67889;SDS011;54685;52.082;5.426;2023-04-30T13:31:00;3.08;;;1.52;;
67889;SDS011;54685;52.082;5.426;2023-04-30T13:33:27;3.63;;;1.70;;
67889;SDS011;54685;52.082;5.426;2023-04-30T13:35:54;3.05;;;1.70;;
67889;SDS011;54685;52.082;5.426;2023-04-30T13:38:21;3.55;;;1.52;;
67889;SDS011;54685;52.082;5.426;2023-04-30T13:40:48;5.30;;;1.60;;
67889;SDS011;54685;52.082;5.426;2023-04-30T13:43:15;3.55;;;1.60;;
67889;SDS011;54685;52.082;5.426;2023-04-30T13:45:42;4.05;;;1.42;;
67889;SDS011;54685;52.082;5.426;2023-04-30T13:48:08;2.85;;;1.20;;
67889;SDS011;54685;52.082;5.426;2023-04-30T13:50:36;1.70;;;1.10;;
67889;SDS011;54685;52.082;5.426;2023-04-30T13:53:02;2.08;;;1.00;;
67889;SDS011;54685;52.082;5.426;2023-04-30T13:55:29;3.78;;;1.20;;
67889;SDS011;54685;52.082;5.426;2023-04-30T13:57:57;2.42;;;1.13;;
67889;SDS011;54685;52.082;5.426;2023-04-30T14:00:23;1.95;;;1.15;;
67889;SDS011;54685;52.082;5.426;2023-04-30T14:02:51;2.22;;;2.10;;
67889;SDS011;54685;52.082;5.426;2023-04-30T14:05:18;1.77;;;1.48;;
67889;SDS011;54685;52.082;5.426;2023-04-30T14:07:45;3.95;;;1.15;;
67889;SDS011;54685;52.082;5.426;2023-04-30T14:10:11;1.60;;;0.90;;
67889;SDS011;54685;52.082;5.426;2023-04-30T14:12:38;2.78;;;1.05;;
67889;SDS011;54685;52.082;5.426;2023-04-30T14:15:05;2.55;;;1.33;;
67889;SDS011;54685;52.082;5.426;2023-04-30T14:17:33;2.55;;;1.95;;
67889;SDS011;54685;52.082;5.426;2023-04-30T14:20:00;5.13;;;4.47;;
67889;SDS011;54685;52.082;5.426;2023-04-30T14:22:27;2.38;;;1.80;;
67889;SDS011;54685;52.082;5.426;2023-04-30T14:24:54;1.75;;;1.42;;
67889;SDS011;54685;52.082;5.426;2023-04-30T14:27:21;1.65;;;1.00;;
67889;SDS011;54685;52.082;5.426;2023-04-30T14:29:49;2.42;;;1.13;;
67889;SDS011;54685;52.082;5.426;2023-04-30T14:32:17;3.95;;;1.63;;
67889;SDS011;54685;52.082;5.426;2023-04-30T14:34:44;2.80;;;1.25;;
67889;SDS011;54685;52.082;5.426;2023-04-30T14:37:11;6.47;;;4.53;;
67889;SDS011;54685;52.082;5.426;2023-04-30T14:39:41;12.75;;;7.50;;
67889;SDS011;54685;52.082;5.426;2023-04-30T14:42:09;7.10;;;2.20;;
67889;SDS011;54685;52.082;5.426;2023-04-30T14:44:36;1.40;;;1.20;;
67889;SDS011;54685;52.082;5.426;2023-04-30T14:47:04;4.10;;;1.90;;
67889;SDS011;54685;52.082;5.426;2023-04-30T14:49:31;3.72;;;1.60;;
67889;SDS011;54685;52.082;5.426;2023-04-30T14:51:58;3.33;;;2.70;;
67889;SDS011;54685;52.082;5.426;2023-04-30T14:54:25;1.73;;;1.05;;
67889;SDS011;54685;52.082;5.426;2023-04-30T14:56:51;2.33;;;1.52;;
67889;SDS011;54685;52.082;5.426;2023-04-30T14:59:18;2.97;;;1.65;;
67889;SDS011;54685;52.082;5.426;2023-04-30T15:01:45;4.30;;;2.40;;
67889;SDS011;54685;52.082;5.426;2023-04-30T15:04:12;6.90;;;2.58;;
67889;SDS011;54685;52.082;5.426;2023-04-30T15:06:38;5.50;;;2.35;;
67889;SDS011;54685;52.082;5.426;2023-04-30T15:09:18;3.60;;;1.35;;
67889;SDS011;54685;52.082;5.426;2023-04-30T15:11:45;1.27;;;0.80;;
67889;SDS011;54685;52.082;5.426;2023-04-30T15:14:12;2.05;;;0.98;;
67889;SDS011;54685;52.082;5.426;2023-04-30T15:16:38;2.60;;;1.00;;
67889;SDS011;54685;52.082;5.426;2023-04-30T15:19:05;1.55;;;0.90;;
67889;SDS011;54685;52.082;5.426;2023-04-30T15:21:32;4.55;;;0.90;;